Time;durP1;ratioP1;P1;durP2;ratioP2;P2;SDS_P1;SDS_P2;PMS_P1;PMS_P2;Temp;Humidity;BMP_temperature;BMP_pressure;BME280_temperature;BME280_humidity;BME280_pressure;Samples;Min_cycle;Max_cycle;Signal;HPM_P1;HPM_P2
2021/08/01 00:01:49;;;;;;;6.75;4.10;;;;;;;;;;6228760;28;20125;-83
2021/08/01 00:04:51;;;;;;;9.15;4.65;;;;;;;;;;6236099;28;20050;-83
2021/08/01 00:07:52;;;;;;;5.95;4.20;;;;;;;;;;6237302;28;20106;-83
2021/08/01 00:10:57;;;;;;;5.47;3.60;;;;;;;;;;6253218;28;20121;-83
2021/08/01 00:13:59;;;;;;;6.65;4.07;;;;;;;;;;6216427;28;20089;-83
2021/08/01 00:17:01;;;;;;;5.22;3.88;;;;;;;;;;6227712;28;20061;-83
2021/08/01 00:20:03;;;;;;;6.03;3.47;;;;;;;;;;6216180;28;20044;-83
2021/08/01 00:23:05;;;;;;;6.78;4.07;;;;;;;;;;6216458;28;20102;-83
2021/08/01 00:26:06;;;;;;;4.47;3.60;;;;;;;;;;6233810;28;20049;-83
2021/08/01 00:29:08;;;;;;;6.18;4.20;;;;;;;;;;6233819;28;20073;-83
2021/08/01 00:32:10;;;;;;;6.85;4.38;;;;;;;;;;6235202;28;20042;-82
2021/08/01 00:35:11;;;;;;;7.40;4.60;;;;;;;;;;6206032;28;20038;-82
2021/08/01 00:38:13;;;;;;;5.07;3.83;;;;;;;;;;6232341;28;20053;-82
2021/08/01 00:41:14;;;;;;;7.10;3.83;;;;;;;;;;6220910;28;20142;-81
2021/08/01 00:44:16;;;;;;;6.03;3.83;;;;;;;;;;6240308;28;20075;-82
2021/08/01 00:47:18;;;;;;;6.45;3.95;;;;;;;;;;6257367;28;20431;-82
2021/08/01 00:50:20;;;;;;;4.72;3.72;;;;;;;;;;6254886;28;20037;-82
2021/08/01 00:53:24;;;;;;;6.00;3.72;;;;;;;;;;6241407;28;20052;-82
2021/08/01 00:56:26;;;;;;;5.95;3.72;;;;;;;;;;6224199;28;20064;-82
2021/08/01 00:59:32;;;;;;;5.20;3.88;;;;;;;;;;6256260;28;20049;-82
2021/08/01 01:02:36;;;;;;;5.18;3.78;;;;;;;;;;6239992;28;20072;-82
2021/08/01 01:05:47;;;;;;;6.05;3.97;;;;;;;;;;6226189;28;20053;-82
2021/08/01 01:09:05;;;;;;;5.28;4.00;;;;;;;;;;6215467;28;20057;-82
2021/08/01 01:12:34;;;;;;;4.90;3.95;;;;;;;;;;6232737;28;20105;-82
2021/08/01 01:15:42;;;;;;;7.95;4.25;;;;;;;;;;6252830;28;20092;-82
2021/08/01 01:18:49;;;;;;;4.40;3.45;;;;;;;;;;6257684;28;20088;-82
2021/08/01 01:22:05;;;;;;;4.72;3.78;;;;;;;;;;6257374;28;20049;-82
2021/08/01 01:25:21;;;;;;;3.90;3.20;;;;;;;;;;6259004;28;20044;-82
2021/08/01 01:28:49;;;;;;;9.57;4.68;;;;;;;;;;6237147;28;20073;-82
2021/08/01 01:31:59;;;;;;;5.93;4.25;;;;;;;;;;6237929;28;20245;-82
2021/08/01 01:35:08;;;;;;;7.63;4.40;;;;;;;;;;6239949;28;20042;-82
2021/08/01 01:38:12;;;;;;;6.90;4.20;;;;;;;;;;6242851;28;20034;-82
2021/08/01 01:41:35;;;;;;;5.95;4.03;;;;;;;;;;6239802;28;20045;-82
2021/08/01 01:44:44;;;;;;;5.85;3.78;;;;;;;;;;6231241;28;20042;-82
2021/08/01 01:47:47;;;;;;;5.88;3.92;;;;;;;;;;6219533;28;20043;-82
2021/08/01 01:50:49;;;;;;;6.18;3.97;;;;;;;;;;6249334;28;20096;-82
2021/08/01 01:53:51;;;;;;;6.13;3.50;;;;;;;;;;6234285;28;20050;-82
2021/08/01 01:56:55;;;;;;;7.10;3.88;;;;;;;;;;6234819;28;20110;-82
2021/08/01 02:00:02;;;;;;;4.63;3.08;;;;;;;;;;6241123;28;20039;-82
2021/08/01 02:03:17;;;;;;;4.05;2.85;;;;;;;;;;6235600;28;20045;-82
2021/08/01 02:06:40;;;;;;;4.63;3.38;;;;;;;;;;6194688;28;20579;-82
2021/08/01 02:10:04;;;;;;;4.90;3.42;;;;;;;;;;6237567;28;20070;-82
2021/08/01 02:13:08;;;;;;;5.05;3.05;;;;;;;;;;6241328;28;20053;-81
2021/08/01 02:16:20;;;;;;;4.38;3.28;;;;;;;;;;6229054;28;20045;-81
2021/08/01 02:19:28;;;;;;;5.68;3.40;;;;;;;;;;6206017;28;20041;-81
2021/08/01 02:22:34;;;;;;;4.35;3.30;;;;;;;;;;6206589;28;20499;-81
2021/08/01 02:25:37;;;;;;;5.20;3.58;;;;;;;;;;6223337;28;20046;-81
2021/08/01 02:28:40;;;;;;;4.22;3.30;;;;;;;;;;6222167;28;20139;-81
2021/08/01 02:31:42;;;;;;;4.78;3.42;;;;;;;;;;6222062;28;20079;-81
2021/08/01 02:34:45;;;;;;;5.35;3.28;;;;;;;;;;6221399;28;20112;-81
2021/08/01 02:37:54;;;;;;;7.47;3.42;;;;;;;;;;6199118;28;20103;-81
2021/08/01 02:41:01;;;;;;;4.22;3.40;;;;;;;;;;6237629;28;20046;-81
2021/08/01 02:44:07;;;;;;;4.03;3.63;;;;;;;;;;6204984;28;20176;-81
2021/08/01 02:47:12;;;;;;;5.22;3.53;;;;;;;;;;6220738;28;20038;-81
2021/08/01 02:50:16;;;;;;;4.38;3.30;;;;;;;;;;6222459;28;20046;-81
2021/08/01 02:53:19;;;;;;;5.60;3.53;;;;;;;;;;6222492;28;20049;-81
2021/08/01 02:56:22;;;;;;;4.28;3.53;;;;;;;;;;6229337;28;20143;-81
2021/08/01 02:59:28;;;;;;;4.43;3.55;;;;;;;;;;6215782;28;20037;-81
2021/08/01 03:02:32;;;;;;;4.03;3.40;;;;;;;;;;6220552;28;20551;-81
2021/08/01 03:05:36;;;;;;;5.43;3.55;;;;;;;;;;6226170;28;20052;-81
2021/08/01 03:08:38;;;;;;;5.70;3.58;;;;;;;;;;6205433;28;20045;-81
2021/08/01 03:11:40;;;;;;;4.25;3.58;;;;;;;;;;6222533;28;20045;-81
2021/08/01 03:14:44;;;;;;;5.53;3.47;;;;;;;;;;6200471;28;20046;-82
2021/08/01 03:17:45;;;;;;;4.85;3.53;;;;;;;;;;6234571;28;20269;-82
2021/08/01 03:20:50;;;;;;;5.03;3.67;;;;;;;;;;6216869;28;20053;-82
2021/08/01 03:23:58;;;;;;;5.65;3.40;;;;;;;;;;6219077;28;20463;-82
2021/08/01 03:27:19;;;;;;;6.20;3.67;;;;;;;;;;6217729;28;20399;-83
2021/08/01 03:30:22;;;;;;;4.93;3.53;;;;;;;;;;6219004;28;20496;-82
2021/08/01 03:33:23;;;;;;;6.03;4.10;;;;;;;;;;6219092;28;20042;-83
2021/08/01 03:36:25;;;;;;;9.07;3.60;;;;;;;;;;6218650;28;20423;-83
2021/08/01 03:39:36;;;;;;;6.82;4.38;;;;;;;;;;6218983;28;20568;-83
2021/08/01 03:42:38;;;;;;;6.50;4.10;;;;;;;;;;6230560;28;20084;-83
2021/08/01 03:45:42;;;;;;;6.18;3.70;;;;;;;;;;6196064;28;20061;-83
2021/08/01 03:48:43;;;;;;;4.90;3.92;;;;;;;;;;6195546;28;20176;-83
2021/08/01 03:51:45;;;;;;;4.55;3.75;;;;;;;;;;6216287;28;20415;-82
2021/08/01 03:54:47;;;;;;;6.32;3.90;;;;;;;;;;6216950;28;20522;-83
2021/08/01 03:57:48;;;;;;;5.03;3.90;;;;;;;;;;6233591;28;20052;-83
2021/08/01 04:00:50;;;;;;;7.00;4.03;;;;;;;;;;6217447;28;20050;-82
2021/08/01 04:03:51;;;;;;;4.85;3.75;;;;;;;;;;6218265;28;20068;-83
2021/08/01 04:06:53;;;;;;;5.28;3.60;;;;;;;;;;6217165;28;20042;-82
2021/08/01 04:09:55;;;;;;;5.30;3.72;;;;;;;;;;6202534;28;20076;-83
2021/08/01 04:12:57;;;;;;;6.22;3.85;;;;;;;;;;6219131;28;20053;-82
2021/08/01 04:15:58;;;;;;;8.20;4.40;;;;;;;;;;6217490;28;20084;-83
2021/08/01 04:19:00;;;;;;;5.90;3.97;;;;;;;;;;6233573;28;20110;-83
2021/08/01 04:22:02;;;;;;;7.93;4.18;;;;;;;;;;6209861;28;20108;-83
2021/08/01 04:25:04;;;;;;;5.75;3.75;;;;;;;;;;6192447;28;20129;-83
2021/08/01 04:28:05;;;;;;;8.18;4.28;;;;;;;;;;6194421;28;20053;-82
2021/08/01 04:31:08;;;;;;;6.87;4.50;;;;;;;;;;6219007;28;20054;-82
2021/08/01 04:34:11;;;;;;;4.97;3.90;;;;;;;;;;6218481;28;20042;-82
2021/08/01 04:37:12;;;;;;;6.15;4.15;;;;;;;;;;6216588;28;20479;-82
2021/08/01 04:40:14;;;;;;;5.40;4.00;;;;;;;;;;6221624;28;20044;-82
2021/08/01 04:43:16;;;;;;;7.75;4.20;;;;;;;;;;6229263;28;20497;-83
2021/08/01 04:46:17;;;;;;;6.40;4.10;;;;;;;;;;6228432;28;20109;-82
2021/08/01 04:49:19;;;;;;;5.00;3.70;;;;;;;;;;6221777;28;20046;-82
2021/08/01 04:52:21;;;;;;;5.50;3.47;;;;;;;;;;6222721;28;20523;-82
2021/08/01 04:55:23;;;;;;;5.70;3.90;;;;;;;;;;6205303;28;20065;-82
2021/08/01 04:58:24;;;;;;;5.97;3.60;;;;;;;;;;6221559;28;20046;-82
2021/08/01 05:01:26;;;;;;;4.78;3.95;;;;;;;;;;6221276;28;20045;-82
2021/08/01 05:04:28;;;;;;;7.65;4.28;;;;;;;;;;6221258;28;20046;-82
2021/08/01 05:07:30;;;;;;;5.80;4.00;;;;;;;;;;6206721;28;20574;-82
2021/08/01 05:10:32;;;;;;;5.28;4.00;;;;;;;;;;6220840;28;20109;-82
2021/08/01 05:13:34;;;;;;;5.30;4.00;;;;;;;;;;6211271;28;20053;-82
2021/08/01 05:16:36;;;;;;;6.10;3.95;;;;;;;;;;6204325;28;20045;-83
2021/08/01 05:19:39;;;;;;;6.47;4.10;;;;;;;;;;6219256;28;20042;-82
2021/08/01 05:22:41;;;;;;;5.28;3.90;;;;;;;;;;6222298;28;20173;-82
2021/08/01 05:25:42;;;;;;;5.85;4.40;;;;;;;;;;6220234;28;20096;-82
2021/08/01 05:28:44;;;;;;;6.25;4.18;;;;;;;;;;6227301;28;20203;-83
2021/08/01 05:31:46;;;;;;;6.72;4.40;;;;;;;;;;6228330;28;20037;-83
2021/08/01 05:34:48;;;;;;;6.00;4.30;;;;;;;;;;6245524;28;20049;-81
2021/08/01 05:37:49;;;;;;;4.95;3.92;;;;;;;;;;6228549;28;20046;-83
2021/08/01 05:40:51;;;;;;;5.47;4.13;;;;;;;;;;6223208;28;20074;-83
2021/08/01 05:43:53;;;;;;;5.95;4.15;;;;;;;;;;6208483;28;20180;-83
2021/08/01 05:46:54;;;;;;;7.85;4.65;;;;;;;;;;6213471;28;20109;-83
2021/08/01 05:49:57;;;;;;;8.93;4.95;;;;;;;;;;6226029;28;20060;-83
2021/08/01 05:52:58;;;;;;;7.40;4.55;;;;;;;;;;6242979;28;20049;-82
2021/08/01 05:56:28;;;;;;;7.53;5.20;;;;;;;;;;6227468;28;20045;-82
2021/08/01 05:59:32;;;;;;;8.60;4.72;;;;;;;;;;6226238;28;20695;-82
2021/08/01 06:02:33;;;;;;;6.20;4.60;;;;;;;;;;6228000;28;20117;-83
2021/08/01 06:05:36;;;;;;;8.63;4.70;;;;;;;;;;6244537;28;20115;-83
2021/08/01 06:08:42;;;;;;;6.97;4.75;;;;;;;;;;6228266;28;20212;-82
2021/08/01 06:11:44;;;;;;;5.32;4.13;;;;;;;;;;6227529;28;20506;-83
2021/08/01 06:14:49;;;;;;;7.82;4.97;;;;;;;;;;6242467;28;20069;-83
2021/08/01 06:17:50;;;;;;;9.32;4.80;;;;;;;;;;6237373;28;20056;-83
2021/08/01 06:21:13;;;;;;;6.20;4.70;;;;;;;;;;6215035;28;20113;-82
2021/08/01 06:24:14;;;;;;;7.97;4.40;;;;;;;;;;6236031;28;20120;-83
2021/08/01 06:27:17;;;;;;;5.93;4.43;;;;;;;;;;6223746;28;20517;-83
2021/08/01 06:30:18;;;;;;;5.63;3.93;;;;;;;;;;6222367;28;20069;-83
2021/08/01 06:33:20;;;;;;;5.65;4.30;;;;;;;;;;6213520;28;20049;-83
2021/08/01 06:36:22;;;;;;;6.50;4.70;;;;;;;;;;6224247;28;20068;-82
2021/08/01 06:39:23;;;;;;;5.95;4.75;;;;;;;;;;6218425;28;20397;-83
2021/08/01 06:42:25;;;;;;;7.85;4.82;;;;;;;;;;6210952;28;20128;-82
2021/08/01 06:45:27;;;;;;;7.22;5.00;;;;;;;;;;6215424;28;20058;-81
2021/08/01 06:48:29;;;;;;;5.32;4.60;;;;;;;;;;6228535;28;20060;-82
2021/08/01 06:51:30;;;;;;;8.20;4.85;;;;;;;;;;6191923;28;20125;-82
2021/08/01 06:54:32;;;;;;;8.25;5.63;;;;;;;;;;6213924;28;20127;-83
2021/08/01 06:57:33;;;;;;;8.77;5.38;;;;;;;;;;6218235;28;20204;-83
2021/08/01 07:00:36;;;;;;;7.97;5.45;;;;;;;;;;6224983;28;20057;-83
2021/08/01 07:03:37;;;;;;;10.47;5.70;;;;;;;;;;6222185;28;20431;-83
2021/08/01 07:06:39;;;;;;;9.38;6.53;;;;;;;;;;6181939;28;20062;-83
2021/08/01 07:09:41;;;;;;;7.65;5.03;;;;;;;;;;6209097;28;20109;-83
2021/08/01 07:12:43;;;;;;;6.40;4.88;;;;;;;;;;6197051;28;20434;-83
2021/08/01 07:15:44;;;;;;;10.45;6.60;;;;;;;;;;6210860;28;20120;-83
2021/08/01 07:18:46;;;;;;;11.18;7.38;;;;;;;;;;6218401;28;20042;-83
2021/08/01 07:21:48;;;;;;;12.77;8.07;;;;;;;;;;6208776;28;20538;-82
2021/08/01 07:24:49;;;;;;;10.98;7.20;;;;;;;;;;6215891;28;20109;-83
2021/08/01 07:27:52;;;;;;;11.05;7.45;;;;;;;;;;6239589;28;20723;-83
2021/08/01 07:30:54;;;;;;;13.80;8.47;;;;;;;;;;6224479;28;20457;-83
2021/08/01 07:34:00;;;;;;;12.80;8.88;;;;;;;;;;6205684;28;20045;-83
2021/08/01 07:37:02;;;;;;;14.70;9.13;;;;;;;;;;6242239;28;20053;-83
2021/08/01 07:40:04;;;;;;;11.27;8.15;;;;;;;;;;6245663;28;20124;-78
2021/08/01 07:43:06;;;;;;;61.85;32.35;;;;;;;;;;6246387;28;20092;-79
2021/08/01 07:46:12;;;;;;;13.25;8.68;;;;;;;;;;6219933;28;20042;-82
2021/08/01 07:49:14;;;;;;;10.25;7.25;;;;;;;;;;6208949;28;20444;-81
2021/08/01 07:52:17;;;;;;;13.65;8.27;;;;;;;;;;6207630;28;20114;-82
2021/08/01 07:55:19;;;;;;;12.93;8.60;;;;;;;;;;6203940;28;20047;-82
2021/08/01 07:58:21;;;;;;;11.45;8.07;;;;;;;;;;6241646;28;20108;-82
2021/08/01 08:01:22;;;;;;;13.30;9.27;;;;;;;;;;6222627;28;20463;-82
2021/08/01 08:04:24;;;;;;;12.52;8.52;;;;;;;;;;6238568;28;20119;-83
2021/08/01 08:07:26;;;;;;;12.35;8.82;;;;;;;;;;6231433;28;20049;-82
2021/08/01 08:10:30;;;;;;;11.98;8.43;;;;;;;;;;6233302;28;20057;-84
2021/08/01 08:13:32;;;;;;;12.27;8.43;;;;;;;;;;6213967;28;20053;-84
2021/08/01 08:16:34;;;;;;;11.48;8.45;;;;;;;;;;6246466;28;20573;-84
2021/08/01 08:19:46;;;;;;;13.05;8.88;;;;;;;;;;6201670;28;20057;-84
2021/08/01 08:23:23;;;;;;;13.30;7.65;;;;;;;;;;6138592;28;20053;-83
2021/08/01 08:26:31;;;;;;;10.77;7.72;;;;;;;;;;6139996;28;20046;-84
2021/08/01 08:29:39;;;;;;;12.25;7.90;;;;;;;;;;6155385;28;20038;-84
2021/08/01 08:33:24;;;;;;;10.55;7.20;;;;;;;;;;6151819;28;20045;-84
2021/08/01 08:36:27;;;;;;;10.57;7.50;;;;;;;;;;6177594;28;20041;-85
2021/08/01 08:39:48;;;;;;;10.05;7.18;;;;;;;;;;6122137;28;20062;-84
2021/08/01 08:42:58;;;;;;;12.27;8.00;;;;;;;;;;6179379;28;20237;-84
2021/08/01 08:46:11;;;;;;;10.90;7.65;;;;;;;;;;6132710;28;20455;-84
2021/08/01 08:49:15;;;;;;;10.40;7.22;;;;;;;;;;6204464;28;20049;-84
2021/08/01 08:52:17;;;;;;;9.48;7.47;;;;;;;;;;6191446;28;20486;-83
2021/08/01 08:55:24;;;;;;;7.97;6.53;;;;;;;;;;6176028;28;20511;-83
2021/08/01 08:58:30;;;;;;;9.95;7.00;;;;;;;;;;6226270;28;20755;-83
2021/08/01 09:01:36;;;;;;;8.93;6.35;;;;;;;;;;6224871;28;20045;-83
2021/08/01 09:04:41;;;;;;;9.73;6.45;;;;;;;;;;6247017;28;20268;-83
2021/08/01 09:07:49;;;;;;;9.18;6.53;;;;;;;;;;6247732;28;20056;-84
2021/08/01 09:10:54;;;;;;;8.80;6.72;;;;;;;;;;6235578;28;20056;-83
2021/08/01 09:18:54;;;;;;;6.65;5.75;;;;;;;;;;6229150;28;20041;-85
2021/08/01 09:22:19;;;;;;;8.75;5.82;;;;;;;;;;6163236;28;20564;-84
2021/08/01 09:25:23;;;;;;;16.20;9.52;;;;;;;;;;6238799;28;20145;-83
2021/08/01 09:28:26;;;;;;;137.80;123.07;;;;;;;;;;6244809;28;20128;-81
2021/08/01 09:31:28;;;;;;;1830.18;844.40;;;;;;;;;;6244668;28;20115;-81
2021/08/01 09:34:30;;;;;;;96.50;41.97;;;;;;;;;;6230991;28;20550;-82
2021/08/01 09:37:33;;;;;;;13.73;9.52;;;;;;;;;;6226852;28;20061;-81
2021/08/01 09:40:35;;;;;;;15.75;8.98;;;;;;;;;;6227273;28;20257;-82
2021/08/01 09:43:55;;;;;;;12.10;10.87;;;;;;;;;;6213368;28;20419;-81
2021/08/01 09:46:57;;;;;;;123.82;95.18;;;;;;;;;;6220700;28;20124;-82
2021/08/01 09:50:06;;;;;;;791.88;476.33;;;;;;;;;;6200242;28;20037;-81
2021/08/01 09:53:12;;;;;;;257.30;161.93;;;;;;;;;;6218107;28;20089;-82
2021/08/01 09:56:16;;;;;;;52.38;44.00;;;;;;;;;;6232534;28;20034;-80
2021/08/01 09:59:21;;;;;;;360.40;323.67;;;;;;;;;;6227217;28;20069;-82
2021/08/01 10:02:40;;;;;;;17.30;11.88;;;;;;;;;;6227826;28;20100;-82
2021/08/01 10:05:58;;;;;;;215.35;145.38;;;;;;;;;;6156744;28;20149;-84
2021/08/01 10:09:00;;;;;;;6.05;4.90;;;;;;;;;;6198382;28;20042;-84
2021/08/01 10:12:03;;;;;;;5.63;5.00;;;;;;;;;;6206124;28;20125;-84
2021/08/01 10:15:07;;;;;;;5.18;4.68;;;;;;;;;;6244209;28;20041;-82
2021/08/01 10:18:09;;;;;;;5.35;4.07;;;;;;;;;;6230833;28;20060;-81
2021/08/01 10:21:19;;;;;;;5.28;3.97;;;;;;;;;;6227308;28;20084;-82
2021/08/01 10:24:25;;;;;;;3.95;3.47;;;;;;;;;;6220074;28;20113;-78
2021/08/01 10:27:27;;;;;;;3.63;3.00;;;;;;;;;;6251182;28;20117;-82
2021/08/01 10:30:30;;;;;;;3.67;2.88;;;;;;;;;;6252626;28;20104;-78
2021/08/01 10:33:38;;;;;;;4.28;3.05;;;;;;;;;;6237048;28;20053;-78
2021/08/01 10:36:46;;;;;;;2.70;2.50;;;;;;;;;;6240499;28;20718;-80
2021/08/01 10:39:48;;;;;;;3.55;2.65;;;;;;;;;;6227303;28;20084;-77
2021/08/01 10:42:55;;;;;;;3.30;3.00;;;;;;;;;;6231727;28;20065;-80
2021/08/01 10:45:58;;;;;;;2.50;2.10;;;;;;;;;;6224484;28;20633;-80
2021/08/01 10:49:02;;;;;;;2.30;2.10;;;;;;;;;;6225982;28;20084;-79
2021/08/01 10:52:13;;;;;;;3.03;2.60;;;;;;;;;;6217019;28;20145;-78
2021/08/01 10:55:23;;;;;;;2.40;2.20;;;;;;;;;;6192182;28;20626;-76
2021/08/01 10:58:34;;;;;;;4.07;2.40;;;;;;;;;;6210072;28;21005;-78
2021/08/01 11:02:14;;;;;;;3.50;2.03;;;;;;;;;;6194602;28;20050;-77
2021/08/01 11:05:36;;;;;;;2.20;2.00;;;;;;;;;;6218383;28;20419;-79
2021/08/01 11:09:14;;;;;;;2.45;2.10;;;;;;;;;;6230523;28;20095;-77
2021/08/01 11:12:19;;;;;;;2.38;2.20;;;;;;;;;;6215397;28;20045;-78
2021/08/01 11:15:45;;;;;;;3.70;2.58;;;;;;;;;;6228403;28;20127;-77
2021/08/01 11:18:46;;;;;;;2.03;1.92;;;;;;;;;;6229865;28;20045;-77
2021/08/01 11:21:48;;;;;;;3.70;2.22;;;;;;;;;;6190172;28;20089;-76
2021/08/01 11:25:37;;;;;;;3.22;2.20;;;;;;;;;;6206096;28;20042;-77
2021/08/01 11:28:41;;;;;;;2.35;2.15;;;;;;;;;;6209028;28;20052;-77
2021/08/01 11:32:07;;;;;;;2.45;1.92;;;;;;;;;;6228187;28;20111;-77
2021/08/01 11:35:19;;;;;;;1.80;1.70;;;;;;;;;;6203949;28;20057;-76
2021/08/01 11:38:21;;;;;;;1.73;1.60;;;;;;;;;;6211944;28;20042;-77
2021/08/01 11:41:26;;;;;;;1.77;1.65;;;;;;;;;;6192781;28;20073;-77
2021/08/01 11:44:56;;;;;;;2.17;1.80;;;;;;;;;;6223776;28;20792;-78
2021/08/01 11:47:58;;;;;;;3.65;1.92;;;;;;;;;;6204581;28;20049;-78
2021/08/01 11:51:05;;;;;;;2.20;2.00;;;;;;;;;;6244861;28;20120;-78
2021/08/01 11:54:07;;;;;;;2.65;2.05;;;;;;;;;;6226597;28;20160;-76
2021/08/01 11:57:14;;;;;;;3.83;2.00;;;;;;;;;;6225620;28;20041;-78
2021/08/01 12:00:22;;;;;;;2.38;2.10;;;;;;;;;;6221629;28;20092;-77
2021/08/01 12:03:26;;;;;;;2.17;1.67;;;;;;;;;;6220297;28;20069;-78
2021/08/01 12:06:32;;;;;;;2.58;1.58;;;;;;;;;;6236370;28;20112;-77
2021/08/01 12:09:38;;;;;;;2.10;1.70;;;;;;;;;;6241906;28;20046;-78
2021/08/01 12:12:40;;;;;;;2.95;2.15;;;;;;;;;;6238389;28;20120;-77
2021/08/01 12:15:43;;;;;;;1.65;1.55;;;;;;;;;;6238877;28;20088;-78
2021/08/01 12:18:44;;;;;;;3.20;1.88;;;;;;;;;;6220249;28;20693;-77
2021/08/01 12:21:48;;;;;;;2.67;1.92;;;;;;;;;;6238036;28;20123;-77
2021/08/01 12:24:57;;;;;;;4.05;2.10;;;;;;;;;;6239730;28;20053;-77
2021/08/01 12:27:59;;;;;;;2.25;1.80;;;;;;;;;;6236969;28;20056;-78
2021/08/01 12:31:00;;;;;;;2.10;1.90;;;;;;;;;;6245271;28;20061;-78
2021/08/01 12:34:02;;;;;;;2.07;1.87;;;;;;;;;;6221368;28;20395;-78
2021/08/01 12:37:05;;;;;;;3.53;1.75;;;;;;;;;;6213388;28;20044;-78
2021/08/01 12:40:07;;;;;;;1.98;1.70;;;;;;;;;;6201096;28;20038;-79
2021/08/01 12:43:12;;;;;;;2.80;1.80;;;;;;;;;;6212312;28;20042;-76
2021/08/01 12:46:18;;;;;;;2.67;1.90;;;;;;;;;;6199761;28;20678;-76
2021/08/01 12:49:22;;;;;;;2.72;1.63;;;;;;;;;;6235283;28;20176;-77
2021/08/01 12:52:25;;;;;;;1.83;1.63;;;;;;;;;;6221182;28;20780;-77
2021/08/01 12:55:28;;;;;;;2.50;1.75;;;;;;;;;;6225619;28;20188;-77
2021/08/01 12:58:32;;;;;;;2.42;1.63;;;;;;;;;;6222944;28;20092;-81
2021/08/01 13:01:43;;;;;;;1.70;1.48;;;;;;;;;;6238931;28;20121;-81
2021/08/01 13:04:50;;;;;;;2.75;1.77;;;;;;;;;;6186390;28;20048;-83
2021/08/01 13:07:53;;;;;;;2.40;1.80;;;;;;;;;;6179887;28;20037;-81
2021/08/01 13:11:03;;;;;;;2.53;1.60;;;;;;;;;;6152062;28;20518;-82
2021/08/01 13:14:06;;;;;;;2.30;2.10;;;;;;;;;;6229611;28;20129;-82
2021/08/01 13:17:08;;;;;;;2.53;1.98;;;;;;;;;;6229421;28;20506;-82
2021/08/01 13:20:10;;;;;;;2.50;1.90;;;;;;;;;;6243634;28;20152;-82
2021/08/01 13:23:37;;;;;;;2.10;1.95;;;;;;;;;;6238037;28;20140;-82
2021/08/01 13:26:40;;;;;;;2.60;2.00;;;;;;;;;;6227894;28;20536;-82
2021/08/01 13:29:42;;;;;;;;;;;;;;;;;;6244000;28;20091;-81
2021/08/01 13:32:45;;;;;;;2.88;2.15;;;;;;;;;;6241980;28;19961;-82
2021/08/01 13:35:51;;;;;;;2.20;2.00;;;;;;;;;;6228557;28;20218;-82
2021/08/01 13:38:59;;;;;;;1.90;1.67;;;;;;;;;;6213875;28;20041;-82
2021/08/01 13:42:08;;;;;;;2.72;1.80;;;;;;;;;;6249154;28;20084;-82
2021/08/01 13:45:15;;;;;;;2.28;1.83;;;;;;;;;;6248011;28;20104;-82
2021/08/01 13:48:19;;;;;;;2.22;1.77;;;;;;;;;;6187640;28;20080;-82
2021/08/01 13:51:21;;;;;;;3.42;1.70;;;;;;;;;;6196876;28;20065;-83
2021/08/01 13:54:26;;;;;;;2.03;1.92;;;;;;;;;;6201523;28;20052;-76
2021/08/01 13:57:28;;;;;;;2.50;1.80;;;;;;;;;;6226552;28;20533;-81
2021/08/01 14:00:31;;;;;;;2.00;1.80;;;;;;;;;;6241779;28;20049;-78
2021/08/01 14:03:33;;;;;;;1.40;1.30;;;;;;;;;;6227275;28;20689;-78
2021/08/01 14:06:34;;;;;;;3.65;2.00;;;;;;;;;;6207878;28;20041;-80
2021/08/01 14:09:36;;;;;;;2.72;1.70;;;;;;;;;;6231147;28;20052;-81
2021/08/01 14:12:39;;;;;;;2.88;1.60;;;;;;;;;;6240471;28;20060;-81
2021/08/01 14:15:42;;;;;;;1.88;1.40;;;;;;;;;;6213289;28;20479;-81
2021/08/01 14:18:44;;;;;;;3.07;1.50;;;;;;;;;;6232372;28;20168;-80
2021/08/01 14:21:46;;;;;;;1.88;1.38;;;;;;;;;;6195000;28;20496;-81
2021/08/01 14:24:48;;;;;;;1.88;1.33;;;;;;;;;;6223333;28;20120;-80
2021/08/01 14:27:50;;;;;;;2.40;1.50;;;;;;;;;;6222134;28;20196;-83
2021/08/01 14:30:55;;;;;;;3.78;1.70;;;;;;;;;;6219266;28;20054;-81
2021/08/01 14:34:01;;;;;;;1.52;1.20;;;;;;;;;;6214357;28;20683;-84
2021/08/01 14:37:04;;;;;;;2.13;1.30;;;;;;;;;;6186186;28;20052;-80
2021/08/01 14:40:07;;;;;;;1.30;1.20;;;;;;;;;;6217368;28;20101;-82
2021/08/01 14:43:10;;;;;;;1.88;1.30;;;;;;;;;;6207933;28;20533;-83
2021/08/01 14:46:12;;;;;;;2.25;1.27;;;;;;;;;;6213863;28;20135;-82
2021/08/01 14:49:21;;;;;;;2.65;1.30;;;;;;;;;;6210939;28;20502;-80
2021/08/01 14:55:50;;;;;;;1.30;1.20;;;;;;;;;;6215935;28;20055;-80
2021/08/01 14:59:11;;;;;;;3.03;1.40;;;;;;;;;;6230890;28;20049;-82
2021/08/01 15:02:40;;;;;;;1.23;1.10;;;;;;;;;;6219261;28;20069;-82
2021/08/01 15:05:58;;;;;;;1.35;1.15;;;;;;;;;;6221460;28;20057;-83
2021/08/01 15:09:06;;;;;;;1.98;1.13;;;;;;;;;;6203943;28;20085;-79
2021/08/01 15:12:10;;;;;;;1.48;1.10;;;;;;;;;;6188874;28;20049;-83
2021/08/01 15:15:12;;;;;;;1.30;1.20;;;;;;;;;;6220051;28;20046;-80
2021/08/01 15:18:19;;;;;;;1.88;1.20;;;;;;;;;;6221465;28;20034;-82
2021/08/01 15:21:25;;;;;;;1.20;1.10;;;;;;;;;;6220754;28;20564;-79
2021/08/01 15:24:39;;;;;;;1.92;1.20;;;;;;;;;;6218606;28;20185;-80
2021/08/01 15:27:41;;;;;;;1.48;1.30;;;;;;;;;;6217501;28;20131;-82
2021/08/01 15:30:43;;;;;;;;;;;;;;;;;;6237489;28;20061;-80
2021/08/01 15:33:45;;;;;;;1.45;1.20;;;;;;;;;;6237478;28;19992;-80
2021/08/01 15:36:47;;;;;;;3.35;1.60;;;;;;;;;;6236477;28;20510;-80
2021/08/01 15:39:53;;;;;;;2.67;1.27;;;;;;;;;;6198206;28;20049;-84
2021/08/01 15:42:56;;;;;;;1.83;1.30;;;;;;;;;;6237825;28;20124;-81
2021/08/01 15:45:59;;;;;;;1.50;1.30;;;;;;;;;;6219981;28;20053;-82
2021/08/01 15:49:01;;;;;;;1.48;1.35;;;;;;;;;;6233332;28;20041;-80
2021/08/01 15:52:07;;;;;;;2.47;1.40;;;;;;;;;;6231465;28;20503;-81
2021/08/01 15:55:15;;;;;;;2.30;1.20;;;;;;;;;;6218838;28;20133;-81
2021/08/01 15:58:23;;;;;;;1.77;1.33;;;;;;;;;;6234338;28;20130;-79
2021/08/01 16:01:46;;;;;;;2.72;1.50;;;;;;;;;;6236977;28;20044;-80
2021/08/01 16:04:54;;;;;;;2.20;1.58;;;;;;;;;;6237338;28;20041;-81
2021/08/01 16:08:11;;;;;;;1.63;1.52;;;;;;;;;;6220496;28;20050;-80
2021/08/01 16:11:15;;;;;;;2.35;1.52;;;;;;;;;;6237748;28;20045;-79
2021/08/01 16:14:21;;;;;;;1.67;1.38;;;;;;;;;;6204553;28;20076;-81
2021/08/01 16:17:31;;;;;;;2.10;1.42;;;;;;;;;;6229742;28;20045;-81
2021/08/01 16:20:34;;;;;;;2.03;1.60;;;;;;;;;;6209978;28;20147;-83
2021/08/01 16:23:56;;;;;;;1.70;1.60;;;;;;;;;;6228710;28;20507;-83
2021/08/01 16:26:57;;;;;;;;;;;;;;;;;;6239199;28;20052;-80
2021/08/01 16:30:03;;;;;;;3.80;1.60;;;;;;;;;;6233399;28;20051;-81
2021/08/01 16:33:06;;;;;;;2.03;1.63;;;;;;;;;;6209700;28;20050;-80
2021/08/01 16:36:07;;;;;;;2.47;1.70;;;;;;;;;;6214082;28;20409;-83
2021/08/01 16:39:09;;;;;;;3.03;1.70;;;;;;;;;;6224036;28;20041;-79
2021/08/01 16:42:42;;;;;;;3.42;1.95;;;;;;;;;;6220231;28;20071;-80
2021/08/01 16:45:55;;;;;;;3.60;1.75;;;;;;;;;;6230507;28;20184;-81
2021/08/01 16:49:11;;;;;;;3.30;1.92;;;;;;;;;;6237693;28;20060;-81
2021/08/01 16:52:30;;;;;;;1.92;1.50;;;;;;;;;;6237404;28;20061;-82
2021/08/01 16:55:50;;;;;;;1.80;1.70;;;;;;;;;;6227812;28;20128;-79
2021/08/01 16:58:59;;;;;;;2.17;1.98;;;;;;;;;;6237095;28;20068;-79
2021/08/01 17:02:07;;;;;;;1.70;1.40;;;;;;;;;;6239915;28;20041;-80
2021/08/01 17:05:17;;;;;;;2.40;1.50;;;;;;;;;;6237876;28;20069;-80
2021/08/01 17:08:45;;;;;;;1.92;1.70;;;;;;;;;;6221455;28;20159;-79
2021/08/01 17:11:50;;;;;;;2.20;2.00;;;;;;;;;;6238771;28;20030;-80
2021/08/01 17:14:53;;;;;;;4.65;2.13;;;;;;;;;;6238431;28;20505;-81
2021/08/01 17:17:55;;;;;;;2.38;2.13;;;;;;;;;;6240327;28;20184;-79
2021/08/01 17:21:00;;;;;;;2.22;2.03;;;;;;;;;;6232533;28;20038;-79
2021/08/01 17:24:03;;;;;;;3.05;2.30;;;;;;;;;;6225703;28;20042;-78
2021/08/01 17:27:08;;;;;;;3.17;2.40;;;;;;;;;;6221019;28;20058;-79
2021/08/01 17:30:11;;;;;;;4.82;2.60;;;;;;;;;;6214815;28;20126;-83
2021/08/01 17:33:17;;;;;;;3.67;2.63;;;;;;;;;;6222104;28;20282;-83
2021/08/01 17:36:20;;;;;;;3.20;2.90;;;;;;;;;;6222293;28;20048;-82
2021/08/01 17:39:31;;;;;;;3.40;3.03;;;;;;;;;;6228431;28;20048;-82
2021/08/01 17:42:33;;;;;;;5.53;3.28;;;;;;;;;;6240285;28;20119;-82
2021/08/01 17:45:37;;;;;;;4.80;3.03;;;;;;;;;;6212541;28;20174;-82
2021/08/01 17:48:40;;;;;;;4.57;3.60;;;;;;;;;;6210767;28;20116;-82
2021/08/01 17:51:41;;;;;;;5.85;3.53;;;;;;;;;;6223042;28;20116;-83
2021/08/01 17:54:46;;;;;;;4.80;2.97;;;;;;;;;;6223473;28;20041;-83
2021/08/01 17:57:48;;;;;;;6.07;3.53;;;;;;;;;;6214576;28;20515;-83
2021/08/01 18:00:52;;;;;;;6.50;3.03;;;;;;;;;;6226506;28;20069;-83
2021/08/01 18:03:55;;;;;;;4.55;2.90;;;;;;;;;;6246864;28;20049;-83
2021/08/01 18:07:09;;;;;;;6.60;3.30;;;;;;;;;;6200606;28;20473;-83
2021/08/01 18:10:16;;;;;;;4.75;2.92;;;;;;;;;;6217073;28;20046;-83
2021/08/01 18:13:22;;;;;;;3.92;3.08;;;;;;;;;;6207139;28;20061;-82
2021/08/01 18:16:30;;;;;;;6.25;3.22;;;;;;;;;;6227141;28;20133;-82
2021/08/01 18:19:32;;;;;;;5.15;3.08;;;;;;;;;;6247073;28;20052;-83
2021/08/01 18:22:38;;;;;;;3.83;2.67;;;;;;;;;;6243463;28;20200;-83
2021/08/01 18:25:39;;;;;;;4.30;2.95;;;;;;;;;;6244157;28;20052;-82
2021/08/01 18:28:41;;;;;;;4.93;3.00;;;;;;;;;;6243144;28;20434;-83
2021/08/01 18:31:44;;;;;;;4.82;2.80;;;;;;;;;;6243019;28;20049;-82
2021/08/01 18:34:48;;;;;;;3.63;2.90;;;;;;;;;;6205110;28;20050;-83
2021/08/01 18:37:50;;;;;;;5.13;3.08;;;;;;;;;;6226149;28;20057;-82
2021/08/01 18:41:02;;;;;;;4.68;3.42;;;;;;;;;;6244295;28;20123;-82